createdAt,value
2023-04-04T00:00:46.338Z,1.45
2023-04-04T00:03:13.005Z,1.42
2023-04-04T00:05:39.769Z,2.22
2023-04-04T00:08:06.627Z,1.30
2023-04-04T00:10:33.338Z,1.88
2023-04-04T00:13:00.234Z,1.75
2023-04-04T00:15:27.356Z,1.73
2023-04-04T00:17:53.948Z,1.52
2023-04-04T00:20:20.767Z,1.30
2023-04-04T00:22:47.364Z,2.10
2023-04-04T00:25:14.559Z,1.85
2023-04-04T00:27:41.306Z,1.45
2023-04-04T00:30:08.414Z,1.45
2023-04-04T00:32:35.068Z,1.42
2023-04-04T00:35:01.728Z,1.60
2023-04-04T00:37:28.324Z,1.52
2023-04-04T00:39:54.960Z,1.60
2023-04-04T00:42:21.702Z,1.70
2023-04-04T00:44:48.712Z,1.33
2023-04-04T00:47:15.662Z,2.45
2023-04-04T00:49:42.278Z,1.58
2023-04-04T00:52:08.987Z,1.77
2023-04-04T00:54:35.985Z,1.60
2023-04-04T00:57:04.367Z,1.85
2023-04-04T00:59:31.359Z,1.48
2023-04-04T01:01:58.442Z,1.80
2023-04-04T01:04:25.227Z,1.55
2023-04-04T01:06:52.155Z,1.65
2023-04-04T01:09:19.125Z,1.73
2023-04-04T01:11:46.071Z,2.03
2023-04-04T01:14:12.892Z,1.83
2023-04-04T01:16:39.886Z,1.30
2023-04-04T01:19:11.628Z,2.13
2023-04-04T01:21:39.506Z,2.20
2023-04-04T01:24:08.356Z,1.55
2023-04-04T01:26:34.990Z,1.80
2023-04-04T01:29:01.825Z,2.22
2023-04-04T01:31:30.093Z,2.25
2023-04-04T01:34:10.064Z,1.98
2023-04-04T01:36:45.117Z,2.30
2023-04-04T01:39:30.275Z,2.40
2023-04-04T01:41:58.441Z,2.05
2023-04-04T01:44:26.531Z,1.58
2023-04-04T01:46:55.629Z,2.10
2023-04-04T01:49:23.475Z,2.00
2023-04-04T01:51:52.401Z,1.50
2023-04-04T01:54:22.617Z,1.58
2023-04-04T01:56:49.362Z,1.48
2023-04-04T01:59:16.341Z,1.75
2023-04-04T02:01:43.723Z,1.55
2023-04-04T02:04:12.618Z,1.52
2023-04-04T02:06:40.470Z,1.63
2023-04-04T02:09:07.339Z,2.03
2023-04-04T02:11:33.992Z,1.50
2023-04-04T02:14:00.818Z,1.83
2023-04-04T02:16:27.491Z,1.85
2023-04-04T02:18:54.102Z,1.60
2023-04-04T02:21:20.853Z,1.83
2023-04-04T02:23:47.628Z,2.70
2023-04-04T02:26:14.300Z,1.90
2023-04-04T02:28:40.854Z,1.20
2023-04-04T02:31:07.532Z,1.30
2023-04-04T02:33:34.189Z,1.45
2023-04-04T02:36:00.965Z,1.90
2023-04-04T02:38:27.580Z,1.75
2023-04-04T02:40:54.275Z,1.52
2023-04-04T02:43:21.177Z,2.03
2023-04-04T02:45:48.422Z,1.60
2023-04-04T02:48:15.709Z,1.33
2023-04-04T02:50:42.575Z,2.10
2023-04-04T02:53:09.513Z,1.80
2023-04-04T02:55:36.239Z,1.65
2023-04-04T02:58:02.938Z,1.77
2023-04-04T03:00:29.755Z,1.40
2023-04-04T03:02:57.947Z,1.48
2023-04-04T03:05:25.440Z,1.63
2023-04-04T03:07:58.495Z,1.42
2023-04-04T03:10:26.373Z,1.48
2023-04-04T03:12:53.548Z,1.85
2023-04-04T03:15:20.695Z,1.90
2023-04-04T03:17:47.751Z,1.90
2023-04-04T03:20:15.234Z,1.88
2023-04-04T03:22:42.456Z,1.90
2023-04-04T03:25:09.680Z,1.70
2023-04-04T03:27:36.458Z,1.70
2023-04-04T03:30:03.960Z,1.75
2023-04-04T03:32:30.732Z,2.05
2023-04-04T03:34:57.418Z,1.67
2023-04-04T03:37:24.216Z,1.80
2023-04-04T03:39:50.852Z,1.92
2023-04-04T03:42:17.478Z,1.80
2023-04-04T03:44:44.064Z,1.75
2023-04-04T03:47:10.773Z,1.73
2023-04-04T03:49:37.439Z,1.77
2023-04-04T03:52:04.332Z,2.13
2023-04-04T03:54:30.985Z,1.80
2023-04-04T03:56:57.829Z,2.05
2023-04-04T03:59:24.701Z,1.90
2023-04-04T04:01:52.260Z,1.88
2023-04-04T04:04:18.932Z,2.10
2023-04-04T04:06:45.579Z,1.85
2023-04-04T04:09:15.037Z,1.83
2023-04-04T04:11:41.854Z,1.50
2023-04-04T04:14:08.538Z,2.33
2023-04-04T04:16:35.215Z,2.17
2023-04-04T04:19:02.479Z,1.80
2023-04-04T04:21:29.094Z,2.03
2023-04-04T04:23:55.693Z,1.92
2023-04-04T04:26:22.404Z,1.90
2023-04-04T04:28:49.106Z,1.48
2023-04-04T04:31:15.755Z,1.75
2023-04-04T04:33:42.402Z,1.85
2023-04-04T04:36:09.230Z,2.00
2023-04-04T04:38:35.864Z,2.47
2023-04-04T04:41:02.594Z,2.92
2023-04-04T04:43:29.221Z,2.85
2023-04-04T04:45:55.850Z,2.42
2023-04-04T04:48:22.648Z,2.42
2023-04-04T04:50:49.375Z,2.50
2023-04-04T04:53:16.741Z,2.88
2023-04-04T04:55:43.830Z,2.08
2023-04-04T04:58:11.189Z,2.72
2023-04-04T05:00:39.123Z,2.85
2023-04-04T05:03:08.776Z,3.40
2023-04-04T05:05:36.324Z,2.55
2023-04-04T05:08:03.743Z,2.42
2023-04-04T05:10:31.609Z,2.55
2023-04-04T05:12:58.349Z,2.53
2023-04-04T05:15:29.329Z,2.28
2023-04-04T05:17:55.969Z,2.17
2023-04-04T05:20:23.306Z,2.67
2023-04-04T05:22:51.509Z,2.97
2023-04-04T05:25:18.321Z,2.38
2023-04-04T05:27:49.250Z,2.20
2023-04-04T05:30:16.451Z,2.33
2023-04-04T05:32:45.478Z,2.55
2023-04-04T05:35:12.951Z,2.42
2023-04-04T05:37:40.556Z,2.25
2023-04-04T05:40:08.452Z,2.50
2023-04-04T05:42:35.260Z,2.55
2023-04-04T05:45:02.055Z,2.63
2023-04-04T05:47:28.724Z,2.08
2023-04-04T05:49:55.408Z,2.28
2023-04-04T05:52:22.091Z,2.88
2023-04-04T05:54:48.769Z,2.33
2023-04-04T05:57:15.455Z,2.53
2023-04-04T05:59:42.216Z,2.20
2023-04-04T06:02:08.807Z,2.85
2023-04-04T06:04:35.512Z,2.70
2023-04-04T06:07:02.522Z,2.85
2023-04-04T06:09:29.212Z,2.13
2023-04-04T06:11:56.433Z,3.25
2023-04-04T06:14:23.061Z,2.78
2023-04-04T06:16:49.748Z,3.03
2023-04-04T06:19:16.873Z,2.45
2023-04-04T06:21:43.480Z,2.83
2023-04-04T06:24:10.057Z,3.17
2023-04-04T06:26:36.703Z,3.58
2023-04-04T06:29:03.699Z,2.95
2023-04-04T06:31:30.740Z,2.95
2023-04-04T06:33:57.758Z,2.63
2023-04-04T06:36:24.329Z,3.53
2023-04-04T06:38:50.914Z,3.03
2023-04-04T06:41:17.527Z,2.53
2023-04-04T06:43:46.708Z,2.80
2023-04-04T06:46:13.273Z,3.28
2023-04-04T06:48:39.996Z,2.78
2023-04-04T06:51:07.857Z,3.47
2023-04-04T06:53:34.897Z,4.00
2023-04-04T06:56:01.581Z,2.63
2023-04-04T06:58:28.469Z,3.85
2023-04-04T07:00:56.632Z,3.20
2023-04-04T07:03:24.498Z,3.20
2023-04-04T07:05:51.239Z,3.38
2023-04-04T07:08:17.815Z,3.20
2023-04-04T07:10:44.500Z,3.33
2023-04-04T07:13:11.359Z,3.53
2023-04-04T07:15:37.988Z,3.25
2023-04-04T07:18:04.658Z,3.70
2023-04-04T07:20:32.304Z,4.95
2023-04-04T07:22:58.931Z,3.85
2023-04-04T07:25:25.617Z,3.75
2023-04-04T07:28:02.314Z,3.85
2023-04-04T07:30:36.541Z,3.67
2023-04-04T07:33:04.539Z,3.25
2023-04-04T07:35:31.355Z,3.58
2023-04-04T07:37:58.103Z,3.30
2023-04-04T07:40:24.713Z,3.58
2023-04-04T07:42:51.828Z,4.00
2023-04-04T07:45:18.596Z,3.38
2023-04-04T07:47:46.219Z,3.25
2023-04-04T07:50:14.131Z,3.10
2023-04-04T07:52:41.666Z,2.88
2023-04-04T07:55:09.114Z,2.95
2023-04-04T07:57:39.780Z,3.00
2023-04-04T08:00:09.714Z,3.00
2023-04-04T08:02:39.573Z,2.90
2023-04-04T08:05:06.957Z,2.15
2023-04-04T08:07:33.715Z,3.35
2023-04-04T08:10:00.511Z,2.53
2023-04-04T08:12:27.201Z,3.28
2023-04-04T08:14:53.827Z,2.72
2023-04-04T08:17:21.033Z,2.75
2023-04-04T08:19:47.617Z,2.80
2023-04-04T08:22:14.485Z,3.00
2023-04-04T08:24:41.115Z,4.15
2023-04-04T08:27:07.784Z,2.95
2023-04-04T08:29:34.738Z,2.80
2023-04-04T08:32:01.428Z,3.75
2023-04-04T08:34:28.743Z,3.20
2023-04-04T08:36:55.669Z,2.13
2023-04-04T08:39:22.278Z,2.65
2023-04-04T08:41:55.642Z,2.60
2023-04-04T08:44:24.885Z,2.67
2023-04-04T08:46:52.133Z,2.22
2023-04-04T08:49:21.283Z,2.10
2023-04-04T08:51:49.195Z,2.10
2023-04-04T08:54:17.210Z,2.08
2023-04-04T08:56:43.832Z,3.85
2023-04-04T08:59:13.949Z,2.50
2023-04-04T09:01:40.595Z,2.45
2023-04-04T09:04:09.510Z,2.35
2023-04-04T09:06:37.186Z,2.10
2023-04-04T09:09:04.173Z,2.55
2023-04-04T09:11:34.027Z,2.28
2023-04-04T09:14:04.483Z,2.00
2023-04-04T09:16:31.565Z,2.22
2023-04-04T09:19:01.126Z,2.10
2023-04-04T09:21:29.320Z,2.05
2023-04-04T09:24:00.275Z,2.10
2023-04-04T09:26:27.256Z,2.92
2023-04-04T09:28:53.990Z,2.25
2023-04-04T09:31:21.053Z,2.13
2023-04-04T09:33:50.496Z,2.10
2023-04-04T09:36:21.052Z,2.20
2023-04-04T09:38:48.888Z,2.15
2023-04-04T09:41:16.611Z,1.63
2023-04-04T09:43:47.287Z,1.92
2023-04-04T09:46:15.948Z,2.35
2023-04-04T09:48:49.103Z,2.05
2023-04-04T09:51:16.227Z,2.05
2023-04-04T09:53:47.511Z,1.83
2023-04-04T09:56:14.401Z,2.30
2023-04-04T09:58:52.331Z,2.15
2023-04-04T10:01:24.419Z,2.30
2023-04-04T10:03:54.669Z,2.13
2023-04-04T10:06:22.438Z,2.38
2023-04-04T10:08:50.081Z,2.13
2023-04-04T10:11:33.602Z,1.90
2023-04-04T10:14:02.797Z,2.15
2023-04-04T10:16:34.863Z,2.17
2023-04-04T10:19:04.496Z,2.38
2023-04-04T10:21:31.545Z,2.60
2023-04-04T10:24:00.287Z,1.70
2023-04-04T10:26:27.239Z,2.25
2023-04-04T10:28:54.281Z,2.40
2023-04-04T10:31:25.760Z,2.40
2023-04-04T10:34:33.855Z,2.03
2023-04-04T10:37:10.752Z,1.92
2023-04-04T10:39:52.267Z,2.55
2023-04-04T10:42:19.786Z,2.30
2023-04-04T10:44:47.648Z,2.25
2023-04-04T10:47:17.061Z,2.25
2023-04-04T10:49:45.749Z,2.28
2023-04-04T10:52:20.943Z,2.60
2023-04-04T10:54:50.961Z,2.40
2023-04-04T10:57:18.041Z,1.55
2023-04-04T11:00:12.951Z,2.22
2023-04-04T11:02:52.835Z,2.38
2023-04-04T11:05:24.420Z,2.53
2023-04-04T11:10:32.705Z,2.83
2023-04-04T11:13:12.760Z,2.13
2023-04-04T11:15:53.237Z,2.33
2023-04-04T11:18:30.517Z,2.83
2023-04-04T11:21:03.718Z,2.13
2023-04-04T11:23:52.846Z,2.63
2023-04-04T11:26:35.674Z,2.45
2023-04-04T11:29:04.565Z,2.65
2023-04-04T11:31:43.258Z,2.20
2023-04-04T11:34:14.645Z,2.13
2023-04-04T11:36:45.324Z,2.40
2023-04-04T11:39:24.314Z,2.70
2023-04-04T11:42:08.301Z,2.25
2023-04-04T11:44:41.559Z,2.25
2023-04-04T11:47:09.326Z,2.55
2023-04-04T11:49:47.002Z,2.75
2023-04-04T11:52:15.914Z,2.78
2023-04-04T11:54:44.391Z,1.98
2023-04-04T11:57:21.174Z,2.50
2023-04-04T11:59:49.809Z,2.03
2023-04-04T12:02:20.100Z,2.33
2023-04-04T12:04:47.647Z,2.45
2023-04-04T12:07:17.345Z,2.28
2023-04-04T12:09:45.047Z,2.00
2023-04-04T12:12:16.457Z,2.60
2023-04-04T12:14:43.701Z,2.75
2023-04-04T12:17:10.647Z,2.15
2023-04-04T12:19:38.811Z,3.33
2023-04-04T12:22:06.240Z,2.03
2023-04-04T12:24:33.167Z,1.98
2023-04-04T12:27:00.061Z,2.55
2023-04-04T12:29:28.423Z,2.00
2023-04-04T12:31:56.073Z,2.60
2023-04-04T12:34:24.616Z,1.75
2023-04-04T12:36:58.716Z,2.75
2023-04-04T12:39:29.522Z,1.90
2023-04-04T12:42:03.737Z,3.03
2023-04-04T12:44:36.037Z,2.03
2023-04-04T12:47:05.148Z,2.85
2023-04-04T12:49:48.808Z,2.70
2023-04-04T12:52:21.772Z,2.83
2023-04-04T12:54:59.131Z,2.28
2023-04-04T12:57:34.548Z,2.53
2023-04-04T13:00:04.057Z,2.47
2023-04-04T13:02:30.799Z,1.80
2023-04-04T13:04:58.901Z,2.90
2023-04-04T13:07:42.925Z,2.92
2023-04-04T13:10:15.117Z,2.50
2023-04-04T13:13:01.672Z,2.83
2023-04-04T13:15:50.555Z,2.72
2023-04-04T13:18:25.725Z,2.50
2023-04-04T13:20:54.105Z,2.92
2023-04-04T13:23:21.818Z,3.05
2023-04-04T13:25:48.563Z,2.97
2023-04-04T13:28:15.701Z,3.13
2023-04-04T13:30:46.883Z,2.95
2023-04-04T13:33:13.929Z,4.05
2023-04-04T13:35:43.818Z,3.10
2023-04-04T13:38:11.604Z,3.15
2023-04-04T13:40:38.524Z,3.05
2023-04-04T13:43:05.352Z,2.75
2023-04-04T13:45:33.813Z,3.53
2023-04-04T13:48:01.032Z,2.70
2023-04-04T13:50:28.033Z,3.65
2023-04-04T13:52:54.844Z,3.05
2023-04-04T13:55:21.993Z,2.22
2023-04-04T13:57:48.584Z,2.95
2023-04-04T14:00:15.840Z,3.83
2023-04-04T14:02:42.443Z,2.75
2023-04-04T14:05:09.251Z,2.70
2023-04-04T14:07:37.872Z,4.22
2023-04-04T14:10:05.457Z,2.95
2023-04-04T14:12:32.017Z,3.45
2023-04-04T14:14:58.574Z,2.85
2023-04-04T14:17:25.198Z,2.75
2023-04-04T14:19:51.768Z,1.95
2023-04-04T14:22:18.300Z,2.30
2023-04-04T14:24:44.896Z,2.45
2023-04-04T14:27:11.963Z,4.60
2023-04-04T14:29:38.630Z,2.40
2023-04-04T14:32:05.314Z,2.53
2023-04-04T14:34:32.050Z,3.35
2023-04-04T14:36:59.923Z,3.53
2023-04-04T14:39:26.739Z,3.17
2023-04-04T14:41:53.536Z,4.70
2023-04-04T14:44:22.030Z,2.45
2023-04-04T14:46:52.879Z,3.78
2023-04-04T14:49:19.573Z,2.67
2023-04-04T14:51:46.296Z,3.65
2023-04-04T14:54:13.047Z,3.75
2023-04-04T14:56:39.687Z,3.53
2023-04-04T14:59:07.063Z,4.00
2023-04-04T15:01:33.839Z,3.63
2023-04-04T15:04:00.637Z,3.80
2023-04-04T15:06:27.544Z,3.53
2023-04-04T15:08:54.278Z,4.18
2023-04-04T15:11:21.423Z,3.92
2023-04-04T15:13:50.333Z,3.40
2023-04-04T15:16:17.594Z,3.75
2023-04-04T15:18:44.291Z,3.70
2023-04-04T15:21:11.474Z,2.95
2023-04-04T15:23:38.150Z,2.85
2023-04-04T15:26:06.373Z,3.00
2023-04-04T15:28:33.348Z,2.75
2023-04-04T15:31:06.243Z,2.33
2023-04-04T15:33:33.068Z,3.45
2023-04-04T15:35:59.726Z,2.55
2023-04-04T15:38:26.477Z,2.90
2023-04-04T15:40:53.150Z,3.03
2023-04-04T15:43:19.727Z,2.45
2023-04-04T15:45:47.379Z,2.47
2023-04-04T15:48:14.063Z,2.58
2023-04-04T15:50:41.140Z,3.00
2023-04-04T15:53:08.042Z,2.13
2023-04-04T15:55:34.658Z,2.33
2023-04-04T15:58:01.336Z,2.03
2023-04-04T16:00:30.896Z,2.92
2023-04-04T16:02:58.892Z,1.92
2023-04-04T16:05:27.238Z,3.53
2023-04-04T16:07:53.899Z,2.28
2023-04-04T16:10:20.709Z,3.20
2023-04-04T16:12:47.297Z,3.08
2023-04-04T16:15:13.858Z,3.08
2023-04-04T16:17:40.437Z,2.78
2023-04-04T16:20:07.553Z,2.83
2023-04-04T16:22:34.201Z,3.63
2023-04-04T16:25:00.883Z,2.65
2023-04-04T16:27:27.506Z,3.75
2023-04-04T16:29:54.070Z,2.30
2023-04-04T16:32:20.754Z,3.53
2023-04-04T16:34:47.332Z,2.17
2023-04-04T16:37:15.761Z,3.03
2023-04-04T16:39:42.394Z,2.42
2023-04-04T16:42:08.986Z,2.45
2023-04-04T16:44:35.834Z,3.67
2023-04-04T16:47:02.618Z,3.13
2023-04-04T16:49:29.363Z,2.33
2023-04-04T16:51:55.954Z,5.47
2023-04-04T16:54:22.590Z,3.58
2023-04-04T16:56:49.284Z,4.53
2023-04-04T16:59:17.420Z,3.05
2023-04-04T17:01:44.296Z,3.80
2023-04-04T17:04:11.003Z,2.60
2023-04-04T17:06:37.733Z,2.30
2023-04-04T17:09:04.345Z,2.83
2023-04-04T17:11:31.074Z,2.67
2023-04-04T17:13:58.066Z,2.72
2023-04-04T17:16:26.294Z,3.13
2023-04-04T17:18:53.088Z,4.28
2023-04-04T17:21:20.044Z,2.15
2023-04-04T17:23:46.726Z,2.28
2023-04-04T17:26:13.358Z,2.45
2023-04-04T17:28:40.004Z,5.97
2023-04-04T17:31:07.668Z,4.10
2023-04-04T17:33:34.339Z,3.90
2023-04-04T17:36:02.504Z,2.83
2023-04-04T17:38:30.860Z,3.03
2023-04-04T17:41:00.678Z,2.25
2023-04-04T17:43:27.436Z,2.10
2023-04-04T17:45:54.018Z,2.00
2023-04-04T17:48:20.590Z,2.92
2023-04-04T17:50:47.826Z,3.80
2023-04-04T17:53:14.422Z,3.22
2023-04-04T17:55:41.238Z,3.17
2023-04-04T17:58:08.051Z,3.40
2023-04-04T18:00:34.958Z,3.92
2023-04-04T18:03:02.008Z,3.45
2023-04-04T18:05:28.837Z,5.15
2023-04-04T18:07:56.110Z,3.75
2023-04-04T18:10:22.698Z,2.55
2023-04-04T18:12:49.273Z,4.68
2023-04-04T18:15:16.134Z,4.00
2023-04-04T18:17:42.965Z,5.78
2023-04-04T18:20:11.433Z,4.93
2023-04-04T18:22:39.268Z,5.30
2023-04-04T18:25:07.210Z,3.88
2023-04-04T18:27:34.340Z,5.13
2023-04-04T18:30:00.909Z,5.82
2023-04-04T18:32:29.067Z,3.92
2023-04-04T18:34:55.921Z,4.93
2023-04-04T18:37:22.497Z,3.40
2023-04-04T18:39:49.080Z,3.15
2023-04-04T18:42:15.943Z,2.63
2023-04-04T18:44:42.549Z,4.60
2023-04-04T18:47:09.322Z,5.03
2023-04-04T18:49:36.386Z,3.80
2023-04-04T18:52:02.971Z,4.47
2023-04-04T18:54:30.334Z,3.42
2023-04-04T18:56:57.704Z,4.68
2023-04-04T18:59:24.765Z,3.78
2023-04-04T19:01:54.291Z,2.72
2023-04-04T19:04:21.650Z,3.35
2023-04-04T19:06:53.488Z,2.33
2023-04-04T19:09:20.909Z,2.13
2023-04-04T19:11:49.134Z,2.92
2023-04-04T19:14:15.875Z,2.72
2023-04-04T19:16:42.742Z,2.97
2023-04-04T19:19:09.521Z,3.13
2023-04-04T19:21:36.120Z,3.28
2023-04-04T19:24:03.183Z,4.47
2023-04-04T19:26:30.093Z,4.63
2023-04-04T19:28:56.738Z,2.42
2023-04-04T19:31:24.581Z,3.88
2023-04-04T19:33:54.969Z,3.70
2023-04-04T19:36:21.874Z,2.95
2023-04-04T19:38:49.348Z,2.55
2023-04-04T19:41:19.005Z,2.53
2023-04-04T19:43:47.658Z,3.22
2023-04-04T19:46:17.222Z,2.58
2023-04-04T19:48:49.176Z,3.15
2023-04-04T19:51:16.588Z,3.70
2023-04-04T19:53:44.563Z,2.10
2023-04-04T19:56:12.612Z,2.38
2023-04-04T19:58:39.576Z,2.35
2023-04-04T20:01:07.749Z,3.13
2023-04-04T20:03:36.936Z,4.28
2023-04-04T20:06:27.960Z,2.55
2023-04-04T20:09:02.892Z,2.65
2023-04-04T20:11:34.760Z,2.38
2023-04-04T20:14:06.138Z,3.65
2023-04-04T20:16:33.457Z,2.55
2023-04-04T20:19:02.253Z,2.60
2023-04-04T20:21:33.803Z,2.40
2023-04-04T20:24:08.302Z,2.72
2023-04-04T20:26:35.385Z,3.67
2023-04-04T20:29:06.378Z,3.28
2023-04-04T20:31:41.953Z,2.10
2023-04-04T20:34:46.350Z,2.47
2023-04-04T20:37:14.238Z,2.45
2023-04-04T20:39:46.312Z,2.33
2023-04-04T20:42:34.654Z,2.20
2023-04-04T20:45:04.244Z,3.38
2023-04-04T20:47:52.155Z,3.08
2023-04-04T20:50:21.501Z,2.63
2023-04-04T20:52:53.376Z,2.90
2023-04-04T20:55:22.449Z,3.05
2023-04-04T20:57:50.937Z,2.88
2023-04-04T21:00:30.096Z,2.90
2023-04-04T21:02:58.653Z,3.08
2023-04-04T21:05:29.814Z,2.42
2023-04-04T21:07:57.072Z,2.90
2023-04-04T21:10:29.757Z,3.45
2023-04-04T21:12:57.689Z,3.20
2023-04-04T21:15:29.595Z,3.20
2023-04-04T21:17:59.457Z,2.65
2023-04-04T21:20:53.613Z,2.75
2023-04-04T21:23:26.184Z,2.65
2023-04-04T21:26:08.063Z,2.67
2023-04-04T21:28:37.639Z,2.83
2023-04-04T21:31:15.140Z,2.60
2023-04-04T21:33:45.392Z,2.63
2023-04-04T21:36:28.323Z,2.67
2023-04-04T21:38:59.966Z,2.75
2023-04-04T21:41:34.095Z,2.95
2023-04-04T21:44:02.495Z,2.80
2023-04-04T21:46:31.736Z,2.97
2023-04-04T21:48:58.380Z,3.22
2023-04-04T21:51:24.965Z,3.08
2023-04-04T21:53:51.706Z,2.78
2023-04-04T21:56:18.671Z,2.70
2023-04-04T21:58:45.812Z,2.85
2023-04-04T22:01:12.433Z,2.65
2023-04-04T22:03:39.588Z,3.45
2023-04-04T22:06:07.227Z,3.03
2023-04-04T22:08:33.844Z,2.35
2023-04-04T22:11:02.279Z,3.45
2023-04-04T22:13:42.997Z,2.90
2023-04-04T22:16:16.119Z,3.35
2023-04-04T22:18:48.026Z,3.30
2023-04-04T22:21:15.545Z,2.90
2023-04-04T22:23:42.698Z,2.42
2023-04-04T22:26:13.811Z,3.70
2023-04-04T22:28:42.554Z,2.97
2023-04-04T22:31:09.478Z,3.03
2023-04-04T22:33:36.050Z,3.30
2023-04-04T22:36:03.660Z,3.22
2023-04-04T22:38:30.343Z,2.97
2023-04-04T22:40:58.600Z,2.90
2023-04-04T22:43:26.057Z,3.08
2023-04-04T22:45:53.332Z,3.30
2023-04-04T22:48:24.101Z,2.80
2023-04-04T22:50:55.570Z,3.25
2023-04-04T22:53:26.193Z,3.08
2023-04-04T22:55:54.093Z,2.90
2023-04-04T22:58:21.686Z,4.00
2023-04-04T23:00:48.528Z,2.80
2023-04-04T23:03:15.895Z,3.33
2023-04-04T23:05:42.883Z,3.95
2023-04-04T23:08:09.562Z,2.88
2023-04-04T23:10:36.867Z,3.55
2023-04-04T23:13:03.589Z,3.50
2023-04-04T23:15:32.378Z,3.30
2023-04-04T23:17:59.140Z,3.25
2023-04-04T23:20:25.953Z,3.28
2023-04-04T23:22:52.942Z,3.13
2023-04-04T23:25:19.753Z,3.85
2023-04-04T23:27:46.483Z,3.35
2023-04-04T23:30:13.292Z,3.65
2023-04-04T23:32:39.982Z,3.55
2023-04-04T23:35:07.073Z,3.78
2023-04-04T23:37:34.145Z,3.80
2023-04-04T23:40:00.922Z,3.47
2023-04-04T23:42:27.518Z,3.63
2023-04-04T23:44:54.252Z,3.65
2023-04-04T23:47:20.963Z,3.55
2023-04-04T23:49:47.621Z,4.05
2023-04-04T23:52:14.337Z,3.47
2023-04-04T23:54:40.907Z,3.78
2023-04-04T23:57:07.514Z,3.92
2023-04-04T23:59:34.088Z,3.67
